Time;durP1;ratioP1;P1;durP2;ratioP2;P2;SDS_P1;SDS_P2;PMS_P1;PMS_P2;Temp;Humidity;BMP_temperature;BMP_pressure;BME280_temperature;BME280_humidity;BME280_pressure;Samples;Min_cycle;Max_cycle;Signal;HPM_P1;HPM_P2
2022/05/07 00:00:23;;;;;;;39.93;20.77;;;14.10;99.90;;;;;;4977929;28;20363;-65
2022/05/07 00:02:49;;;;;;;43.17;21.40;;;14.10;99.90;;;;;;4985038;28;20042;-65
2022/05/07 00:05:15;;;;;;;42.92;22.40;;;14.10;99.90;;;;;;4981023;28;20190;-65
2022/05/07 00:07:41;;;;;;;43.08;22.35;;;14.20;99.90;;;;;;4972310;28;20089;-66
2022/05/07 00:10:07;;;;;;;40.30;22.30;;;14.10;99.90;;;;;;4977113;28;20042;-65
2022/05/07 00:12:32;;;;;;;40.40;22.45;;;14.10;99.90;;;;;;4971283;28;20294;-69
2022/05/07 00:14:58;;;;;;;42.90;22.33;;;14.20;99.90;;;;;;4983820;28;20038;-68
2022/05/07 00:20:09;;;;;;;42.40;21.98;;;14.10;99.90;;;;;;4977491;28;20074;-65
2022/05/07 00:22:35;;;;;;;45.45;23.13;;;14.10;99.90;;;;;;4976127;28;20506;-65
2022/05/07 00:25:01;;;;;;;37.63;21.23;;;14.10;99.90;;;;;;4982583;28;20065;-66
2022/05/07 00:27:26;;;;;;;40.47;22.77;;;14.10;99.90;;;;;;4985861;28;20038;-66
2022/05/07 00:29:52;;;;;;;39.60;22.40;;;14.10;99.90;;;;;;4986973;28;20576;-66
2022/05/07 00:32:18;;;;;;;42.53;21.45;;;14.00;99.90;;;;;;5083993;22;20044;-72
2022/05/07 00:34:43;;;;;;;41.73;21.50;;;14.00;99.90;;;;;;5054956;28;20041;-71
2022/05/07 00:37:09;;;;;;;41.90;20.80;;;14.00;99.90;;;;;;5058080;28;20043;-70
2022/05/07 00:39:34;;;;;;;39.90;21.00;;;14.00;99.90;;;;;;5048988;28;20032;-71
2022/05/07 00:42:04;;;;;;;46.27;22.97;;;13.90;99.90;;;;;;5035043;28;20110;-71
2022/05/07 00:44:30;;;;;;;37.17;21.27;;;13.90;99.90;;;;;;5062094;28;20307;-67
2022/05/07 00:47:19;;;;;;;40.22;23.25;;;13.90;99.90;;;;;;5060449;28;20045;-69
2022/05/07 00:49:47;;;;;;;39.30;21.88;;;13.90;99.90;;;;;;5046773;28;20044;-68
2022/05/07 00:52:13;;;;;;;35.30;20.90;;;13.90;99.90;;;;;;5047190;28;20045;-68
2022/05/07 00:54:40;;;;;;;;;;;13.90;99.90;;;;;;5064472;28;20095;-68
2022/05/07 00:57:08;;;;;;;37.58;20.85;;;13.80;99.90;;;;;;5039955;28;19916;-68
2022/05/07 00:59:34;;;;;;;41.85;21.40;;;13.80;99.90;;;;;;5067104;28;20066;-69
2022/05/07 01:01:59;;;;;;;43.05;21.23;;;13.90;99.90;;;;;;5039266;28;20048;-69
2022/05/07 01:04:25;;;;;;;41.07;21.83;;;13.80;99.90;;;;;;5058971;28;20235;-68
2022/05/07 01:06:51;;;;;;;43.00;21.77;;;13.80;99.90;;;;;;5065567;28;20033;-68
2022/05/07 01:09:17;;;;;;;37.53;21.90;;;13.90;99.90;;;;;;5065658;28;20469;-68
2022/05/07 01:11:42;;;;;;;38.20;21.98;;;13.80;99.90;;;;;;5063004;28;20334;-68
2022/05/07 01:14:08;;;;;;;35.28;19.85;;;13.80;99.90;;;;;;5048872;28;20062;-68
2022/05/07 01:16:34;;;;;;;36.40;21.13;;;13.80;99.90;;;;;;5052198;28;20032;-68
2022/05/07 01:18:59;;;;;;;34.23;20.70;;;13.80;99.90;;;;;;5065138;28;20413;-68
2022/05/07 01:21:27;;;;;;;34.22;19.48;;;13.80;99.90;;;;;;5040372;28;20814;-68
2022/05/07 01:23:52;;;;;;;39.95;21.85;;;13.80;99.90;;;;;;5046771;28;20044;-68
2022/05/07 01:26:20;;;;;;;37.95;20.17;;;13.80;99.90;;;;;;5063325;28;20044;-68
2022/05/07 01:28:46;;;;;;;33.55;20.08;;;13.80;99.90;;;;;;5054115;28;20044;-68
2022/05/07 01:31:12;;;;;;;34.70;20.75;;;13.70;99.90;;;;;;5042106;28;20048;-68
2022/05/07 01:33:38;;;;;;;38.58;20.67;;;13.80;99.90;;;;;;5061527;28;20082;-68
2022/05/07 01:36:11;;;;;;;32.92;18.65;;;13.70;99.90;;;;;;5041288;28;20071;-69
2022/05/07 01:38:37;;;;;;;28.75;16.65;;;13.70;99.90;;;;;;5048281;28;20231;-68
2022/05/07 01:41:03;;;;;;;32.85;18.80;;;13.70;99.90;;;;;;5047957;28;20049;-68
2022/05/07 01:43:32;;;;;;;31.17;18.80;;;13.70;99.90;;;;;;5063273;28;20058;-68
2022/05/07 01:45:59;;;;;;;32.13;18.10;;;13.70;99.90;;;;;;5036024;28;20044;-69
2022/05/07 01:48:25;;;;;;;29.58;17.38;;;13.70;99.90;;;;;;5061892;28;20032;-68
2022/05/07 01:50:50;;;;;;;31.05;18.33;;;13.60;99.90;;;;;;5035433;28;20037;-68
2022/05/07 01:53:16;;;;;;;29.80;18.10;;;13.60;99.90;;;;;;5062519;28;20029;-69
2022/05/07 01:55:43;;;;;;;31.05;18.38;;;13.60;99.90;;;;;;5038055;28;20116;-68
2022/05/07 01:58:11;;;;;;;29.08;15.75;;;13.60;99.90;;;;;;5060591;28;20059;-68
2022/05/07 02:00:40;;;;;;;31.60;17.17;;;13.60;99.90;;;;;;5059326;28;20562;-68
2022/05/07 02:03:07;;;;;;;30.63;18.27;;;13.50;99.90;;;;;;5068811;28;20045;-68
2022/05/07 02:05:32;;;;;;;30.15;16.13;;;13.60;99.90;;;;;;5059590;28;20043;-68
2022/05/07 02:07:58;;;;;;;27.98;16.60;;;13.50;99.90;;;;;;5043805;28;20347;-68
2022/05/07 02:10:24;;;;;;;29.60;15.50;;;13.50;99.90;;;;;;5054759;28;20123;-68
2022/05/07 02:12:51;;;;;;;24.20;13.68;;;13.50;99.90;;;;;;5060075;28;20040;-68
2022/05/07 02:15:17;;;;;;;22.08;14.10;;;13.50;99.90;;;;;;5060246;28;20032;-68
2022/05/07 02:17:43;;;;;;;20.63;12.10;;;13.50;99.90;;;;;;5059218;28;20095;-68
2022/05/07 02:20:09;;;;;;;18.17;12.30;;;13.40;99.90;;;;;;5057251;28;20033;-68
2022/05/07 02:22:35;;;;;;;19.63;12.45;;;13.40;99.90;;;;;;5025332;28;20488;-68
2022/05/07 02:25:01;;;;;;;20.27;11.70;;;13.40;99.90;;;;;;5059867;28;20044;-68
2022/05/07 02:27:26;;;;;;;20.35;12.70;;;13.30;99.90;;;;;;5043127;28;20040;-68
2022/05/07 02:29:52;;;;;;;19.42;13.02;;;13.30;99.90;;;;;;5059146;28;20079;-69
2022/05/07 02:32:18;;;;;;;17.73;11.02;;;13.30;99.90;;;;;;5059415;28;20102;-68
2022/05/07 02:34:44;;;;;;;19.25;11.88;;;13.30;99.90;;;;;;5039555;28;20056;-68
2022/05/07 02:37:10;;;;;;;19.02;11.70;;;13.30;99.90;;;;;;5060827;28;20044;-68
2022/05/07 02:39:36;;;;;;;23.60;12.52;;;13.20;99.90;;;;;;5055222;28;20669;-69
2022/05/07 02:44:46;;;;;;;20.20;12.38;;;13.20;99.90;;;;;;5058781;28;20497;-68
2022/05/07 02:47:12;;;;;;;21.48;12.57;;;13.10;99.90;;;;;;5052249;28;20389;-68
2022/05/07 02:49:37;;;;;;;17.73;12.17;;;13.20;99.90;;;;;;5052385;28;20037;-68
2022/05/07 02:52:03;;;;;;;19.92;12.07;;;13.10;99.90;;;;;;5038818;28;20321;-68
2022/05/07 02:54:29;;;;;;;20.00;12.27;;;13.10;99.90;;;;;;5059009;28;20037;-68
2022/05/07 02:56:55;;;;;;;17.30;11.70;;;13.10;99.90;;;;;;5052320;28;20144;-68
2022/05/07 02:59:22;;;;;;;18.17;10.80;;;13.10;99.90;;;;;;5052401;28;20063;-68
2022/05/07 03:01:47;;;;;;;19.98;11.15;;;13.10;99.90;;;;;;5057006;28;20032;-69
2022/05/07 03:04:13;;;;;;;19.95;11.25;;;13.10;99.90;;;;;;5061140;28;20116;-68
2022/05/07 03:06:39;;;;;;;21.20;12.57;;;13.10;99.90;;;;;;5052992;28;20036;-68
2022/05/07 03:09:05;;;;;;;18.98;11.60;;;13.10;99.90;;;;;;5043201;28;20106;-69
2022/05/07 03:11:33;;;;;;;19.05;12.55;;;13.00;99.90;;;;;;5052442;28;20388;-69
2022/05/07 03:14:00;;;;;;;18.38;10.98;;;13.00;99.90;;;;;;5058575;28;20422;-69
2022/05/07 03:16:26;;;;;;;16.75;10.48;;;13.00;99.90;;;;;;5059118;28;20511;-68
2022/05/07 03:18:52;;;;;;;18.65;12.18;;;13.10;99.90;;;;;;5067346;28;20036;-68
2022/05/07 03:21:17;;;;;;;18.60;11.75;;;13.10;99.90;;;;;;5052369;28;20446;-69
2022/05/07 03:23:44;;;;;;;16.83;10.82;;;13.10;99.90;;;;;;5039135;28;20094;-68
2022/05/07 03:26:11;;;;;;;18.45;10.90;;;13.10;99.90;;;;;;5037421;28;20123;-68
2022/05/07 03:28:37;;;;;;;17.67;10.68;;;13.10;99.90;;;;;;5059055;28;20072;-68
2022/05/07 03:31:03;;;;;;;16.70;10.32;;;13.10;99.90;;;;;;5038250;28;20527;-68
2022/05/07 03:33:28;;;;;;;19.97;11.97;;;13.10;99.90;;;;;;5060401;28;20040;-69
2022/05/07 03:35:54;;;;;;;16.87;10.97;;;13.00;99.90;;;;;;5058123;28;20131;-67
2022/05/07 03:38:20;;;;;;;17.43;10.67;;;13.10;99.90;;;;;;5065632;28;20322;-68
2022/05/07 03:40:45;;;;;;;17.80;10.93;;;13.10;99.90;;;;;;5054875;28;20071;-68
2022/05/07 03:43:11;;;;;;;16.40;10.25;;;13.10;99.90;;;;;;5057777;28;20032;-68
2022/05/07 03:45:36;;;;;;;17.50;10.47;;;13.10;99.90;;;;;;5035200;28;20551;-69
2022/05/07 03:48:02;;;;;;;14.90;10.40;;;13.10;99.90;;;;;;5044570;28;20040;-69
2022/05/07 03:50:28;;;;;;;17.58;11.07;;;13.00;99.90;;;;;;5025467;28;20045;-68
2022/05/07 03:55:41;;;;;;;17.80;11.10;;;13.10;99.90;;;;;;5040392;28;20040;-69
2022/05/07 03:58:10;;;;;;;16.40;10.60;;;13.00;99.90;;;;;;5062649;28;20032;-68
2022/05/07 04:00:37;;;;;;;16.58;11.32;;;13.00;99.90;;;;;;5039539;28;20051;-68
2022/05/07 04:03:03;;;;;;;16.40;10.57;;;13.00;99.90;;;;;;5064236;28;20127;-67
2022/05/07 04:05:29;;;;;;;15.75;9.88;;;13.10;99.90;;;;;;5067716;28;20222;-68
2022/05/07 04:07:55;;;;;;;17.80;10.83;;;13.10;99.90;;;;;;5049507;28;20067;-67
2022/05/07 04:10:20;;;;;;;17.10;11.07;;;13.10;99.90;;;;;;5058918;28;20345;-69
2022/05/07 04:12:48;;;;;;;19.27;11.87;;;13.10;99.90;;;;;;5064999;28;20052;-68
2022/05/07 04:15:14;;;;;;;17.25;11.27;;;13.10;99.90;;;;;;5072240;28;20295;-68
2022/05/07 04:17:40;;;;;;;17.70;11.32;;;13.00;99.90;;;;;;5048284;28;20111;-68
2022/05/07 04:20:07;;;;;;;17.53;11.40;;;13.00;99.90;;;;;;5057042;28;20138;-68
2022/05/07 04:22:32;;;;;;;17.95;11.30;;;13.00;99.90;;;;;;5060833;28;20682;-68
2022/05/07 04:24:58;;;;;;;21.00;12.27;;;13.00;99.90;;;;;;5043353;28;20090;-68
2022/05/07 04:27:24;;;;;;;15.60;10.00;;;13.00;99.90;;;;;;5068364;28;20040;-68
2022/05/07 04:29:49;;;;;;;18.07;11.77;;;13.00;99.90;;;;;;5059976;28;20405;-68
2022/05/07 04:32:15;;;;;;;17.20;11.37;;;13.00;99.90;;;;;;5062271;28;20124;-71
2022/05/07 04:34:40;;;;;;;18.90;11.70;;;13.00;99.90;;;;;;5061239;28;20039;-68
2022/05/07 04:37:06;;;;;;;18.47;11.80;;;13.00;99.90;;;;;;5033424;28;20075;-69
2022/05/07 04:39:34;;;;;;;19.02;11.27;;;13.00;99.90;;;;;;5055168;28;20048;-68
2022/05/07 04:42:01;;;;;;;17.27;11.20;;;13.10;99.90;;;;;;5029422;28;20071;-68
2022/05/07 04:44:26;;;;;;;19.67;12.23;;;13.10;99.90;;;;;;5065219;28;20478;-68
2022/05/07 04:46:52;;;;;;;17.80;11.43;;;13.10;99.90;;;;;;5049265;28;20044;-68
2022/05/07 04:49:19;;;;;;;19.00;11.73;;;13.10;99.90;;;;;;5070785;28;20286;-68
2022/05/07 04:51:45;;;;;;;18.38;11.50;;;13.10;99.90;;;;;;5063481;28;20348;-68
2022/05/07 04:54:11;;;;;;;19.80;11.38;;;13.10;99.90;;;;;;5060723;28;20040;-68
2022/05/07 04:56:37;;;;;;;18.38;11.15;;;13.10;99.90;;;;;;5066361;28;20040;-68
2022/05/07 04:59:02;;;;;;;20.10;11.43;;;13.10;99.90;;;;;;5065628;28;20032;-69
2022/05/07 05:01:28;;;;;;;19.00;11.60;;;13.10;99.90;;;;;;5050907;28;20508;-69
2022/05/07 05:03:53;;;;;;;16.93;10.97;;;13.10;99.90;;;;;;5040589;28;20052;-69
2022/05/07 05:06:19;;;;;;;14.37;9.60;;;13.10;99.90;;;;;;5036813;28;20067;-71
2022/05/07 05:08:44;;;;;;;16.40;11.30;;;13.10;99.90;;;;;;5067342;28;20044;-70
2022/05/07 05:11:10;;;;;;;17.70;11.97;;;13.10;99.90;;;;;;5061268;28;20072;-70
2022/05/07 05:13:35;;;;;;;18.30;11.03;;;13.10;99.90;;;;;;5061370;28;20085;-68
2022/05/07 05:16:01;;;;;;;21.33;12.37;;;13.10;99.90;;;;;;5065589;28;20098;-68
2022/05/07 05:18:26;;;;;;;22.33;12.63;;;13.10;99.90;;;;;;5066618;28;20489;-69
2022/05/07 05:20:53;;;;;;;15.70;10.20;;;13.10;99.90;;;;;;5046497;28;20489;-68
2022/05/07 05:23:18;;;;;;;18.33;11.65;;;13.00;99.90;;;;;;5037706;28;20065;-68
2022/05/07 05:25:45;;;;;;;18.47;11.90;;;13.20;99.90;;;;;;5060876;28;20052;-68
2022/05/07 05:28:11;;;;;;;17.67;12.35;;;13.20;99.90;;;;;;5024581;28;20839;-69
2022/05/07 05:30:37;;;;;;;;;;;13.20;99.90;;;;;;5061391;28;20448;-68
2022/05/07 05:33:03;;;;;;;17.70;12.15;;;13.20;99.90;;;;;;5061792;28;19923;-69
2022/05/07 05:35:28;;;;;;;16.63;10.73;;;13.20;99.90;;;;;;5052606;28;20112;-69
2022/05/07 05:37:54;;;;;;;20.70;12.43;;;13.30;99.90;;;;;;5064316;28;20348;-68
2022/05/07 05:40:20;;;;;;;17.88;11.23;;;13.30;99.90;;;;;;5063349;28;20202;-68
2022/05/07 05:42:46;;;;;;;20.65;11.38;;;13.30;99.90;;;;;;5029402;28;20036;-72
2022/05/07 05:45:11;;;;;;;19.30;11.43;;;13.40;99.90;;;;;;5048001;28;20098;-68
2022/05/07 05:47:37;;;;;;;18.30;11.47;;;13.40;99.90;;;;;;5060417;28;20037;-68
2022/05/07 05:50:03;;;;;;;17.73;11.48;;;13.40;99.90;;;;;;5067676;28;20366;-68
2022/05/07 05:52:29;;;;;;;18.42;12.00;;;13.40;99.90;;;;;;5035742;28;20033;-71
2022/05/07 05:54:54;;;;;;;17.30;11.83;;;13.40;99.90;;;;;;5052333;28;20089;-72
2022/05/07 05:57:22;;;;;;;19.33;11.13;;;13.50;99.90;;;;;;5020450;28;20337;-72
2022/05/07 05:59:47;;;;;;;18.27;11.68;;;13.50;99.90;;;;;;5021940;28;20480;-72
2022/05/07 06:02:15;;;;;;;18.60;11.10;;;13.50;99.90;;;;;;5046993;28;20040;-68
2022/05/07 06:04:41;;;;;;;19.17;12.02;;;13.50;99.90;;;;;;5066631;28;20060;-69
2022/05/07 06:07:06;;;;;;;15.40;10.87;;;13.60;99.90;;;;;;5048899;28;20044;-70
2022/05/07 06:09:32;;;;;;;21.50;11.50;;;13.60;99.90;;;;;;5038469;28;20127;-73
2022/05/07 06:11:59;;;;;;;20.17;11.33;;;13.70;99.90;;;;;;5035977;28;20040;-69
2022/05/07 06:14:25;;;;;;;16.52;10.70;;;13.70;99.90;;;;;;5059108;28;20287;-70
2022/05/07 06:16:51;;;;;;;16.75;11.38;;;13.70;99.90;;;;;;5051003;28;20444;-72
2022/05/07 06:19:17;;;;;;;19.95;11.93;;;13.70;99.90;;;;;;5057267;28;20045;-69
2022/05/07 06:21:42;;;;;;;17.47;11.60;;;13.80;99.90;;;;;;5054332;28;20042;-68
2022/05/07 06:29:36;;;;;;;17.15;11.82;;;13.70;99.90;;;;;;5053841;28;20037;-68
2022/05/07 06:34:35;;;;;;;19.95;13.00;;;13.80;99.90;;;;;;5040090;28;21506;-66
2022/05/07 06:37:01;;;;;;;17.90;11.93;;;13.70;99.90;;;;;;5018690;28;20037;-67
2022/05/07 06:39:26;;;;;;;16.63;11.53;;;13.80;99.90;;;;;;5005626;28;20116;-68
2022/05/07 06:41:53;;;;;;;20.93;13.17;;;13.90;99.90;;;;;;5012757;28;20295;-68
2022/05/07 06:44:18;;;;;;;19.58;12.75;;;13.90;99.90;;;;;;5005733;28;20327;-69
2022/05/07 06:46:44;;;;;;;21.13;13.33;;;14.00;99.90;;;;;;5021632;28;20090;-68
2022/05/07 06:49:11;;;;;;;20.73;13.18;;;14.00;99.90;;;;;;5000319;28;20049;-69
2022/05/07 06:51:36;;;;;;;;;;;14.10;99.90;;;;;;5011211;28;20095;-67
2022/05/07 06:54:02;;;;;;;21.58;13.07;;;14.20;99.90;;;;;;5017562;28;20496;-68
2022/05/07 06:56:27;;;;;;;19.43;12.93;;;14.20;99.90;;;;;;5021496;28;20288;-68
2022/05/07 06:58:53;;;;;;;19.60;12.80;;;14.30;99.90;;;;;;5020417;28;20298;-68
2022/05/07 07:01:18;;;;;;;21.70;13.57;;;14.40;99.90;;;;;;5017638;28;20402;-70
2022/05/07 07:03:44;;;;;;;21.38;13.88;;;14.40;99.90;;;;;;5017717;28;20498;-68
2022/05/07 07:06:10;;;;;;;24.17;14.03;;;14.50;99.90;;;;;;5008361;28;20072;-68
2022/05/07 07:08:35;;;;;;;24.25;14.88;;;14.60;99.90;;;;;;5009787;28;20076;-69
2022/05/07 07:11:01;;;;;;;25.15;15.10;;;14.70;99.90;;;;;;5010955;28;20037;-69
2022/05/07 07:13:26;;;;;;;23.80;14.98;;;14.70;99.90;;;;;;5018661;28;20635;-70
2022/05/07 07:15:52;;;;;;;21.50;13.90;;;14.80;99.90;;;;;;5014618;28;20124;-69
2022/05/07 07:18:18;;;;;;;24.00;14.20;;;14.90;99.90;;;;;;5024979;28;20038;-68
2022/05/07 07:20:44;;;;;;;25.27;15.02;;;14.90;99.90;;;;;;5016667;28;20081;-68
2022/05/07 07:23:11;;;;;;;24.15;14.55;;;15.00;99.90;;;;;;5024973;28;20037;-68
2022/05/07 07:25:41;;;;;;;25.63;14.70;;;15.10;99.90;;;;;;5021269;28;20034;-68
2022/05/07 07:28:11;;;;;;;24.60;14.15;;;15.10;99.90;;;;;;5013014;28;20491;-68
2022/05/07 07:30:37;;;;;;;24.80;14.80;;;15.20;99.90;;;;;;5020460;28;20029;-68
2022/05/07 07:33:05;;;;;;;29.02;16.75;;;15.30;99.90;;;;;;5018460;28;20060;-68
2022/05/07 07:35:31;;;;;;;27.52;15.73;;;15.30;99.90;;;;;;5012508;28;20048;-68
2022/05/07 07:37:57;;;;;;;25.25;15.02;;;15.50;99.90;;;;;;5014978;28;20504;-69
2022/05/07 07:40:23;;;;;;;28.48;15.80;;;15.50;99.90;;;;;;5003784;28;20048;-69
2022/05/07 07:42:48;;;;;;;26.50;14.90;;;15.50;99.90;;;;;;5018374;28;20310;-66
2022/05/07 07:48:03;;;;;;;26.98;15.35;;;15.60;99.90;;;;;;5009383;28;20375;-66
2022/05/07 07:50:35;;;;;;;28.90;16.83;;;15.70;99.90;;;;;;5025047;28;20034;-70
2022/05/07 07:53:06;;;;;;;29.48;15.80;;;15.80;99.90;;;;;;5013095;28;20431;-68
2022/05/07 07:55:31;;;;;;;27.83;16.33;;;15.80;99.90;;;;;;5021775;28;20063;-67
2022/05/07 07:58:01;;;;;;;29.90;16.98;;;15.80;99.90;;;;;;5007377;28;20037;-66
2022/05/07 08:00:29;;;;;;;29.98;17.02;;;15.90;99.90;;;;;;5025503;28;20261;-67
2022/05/07 08:02:58;;;;;;;32.97;16.58;;;16.00;99.90;;;;;;5010079;28;20046;-66
2022/05/07 08:05:28;;;;;;;27.50;15.35;;;16.00;99.90;;;;;;4992073;28;22164;-66
2022/05/07 08:13:24;;;;;;;28.00;16.67;;;16.10;99.90;;;;;;5015544;28;20049;-66
2022/05/07 08:15:49;;;;;;;27.17;15.40;;;16.10;99.90;;;;;;5019152;28;20116;-66
2022/05/07 08:18:16;;;;;;;25.55;15.00;;;16.20;99.90;;;;;;5013821;28;20045;-66
2022/05/07 08:20:42;;;;;;;25.67;15.63;;;16.20;99.90;;;;;;5011638;28;20168;-66
2022/05/07 08:23:08;;;;;;;;;;;16.30;99.90;;;;;;4991916;28;20044;-66
2022/05/07 08:25:34;;;;;;;28.83;15.85;;;16.30;99.90;;;;;;5001931;28;19917;-66
2022/05/07 08:28:00;;;;;;;;;;;16.30;99.90;;;;;;5021106;28;20167;-66
2022/05/07 08:30:26;;;;;;;27.15;15.18;;;16.40;99.90;;;;;;5014393;28;20008;-68
2022/05/07 08:32:51;;;;;;;26.48;14.98;;;16.50;99.90;;;;;;5012211;28;20057;-66
2022/05/07 08:35:18;;;;;;;24.92;14.30;;;16.50;99.90;;;;;;5011490;28;20144;-66
2022/05/07 08:37:44;;;;;;;28.48;16.02;;;16.50;99.90;;;;;;5012058;28;20037;-69
2022/05/07 08:40:13;;;;;;;27.25;16.02;;;16.50;99.90;;;;;;5024715;28;21184;-67
2022/05/07 08:42:39;;;;;;;27.38;14.95;;;16.60;99.90;;;;;;4992741;28;20042;-68
2022/05/07 08:45:05;;;;;;;24.55;15.38;;;16.60;99.90;;;;;;5012180;28;20046;-68
2022/05/07 08:47:31;;;;;;;27.38;15.88;;;16.60;99.90;;;;;;5013425;28;20474;-67
2022/05/07 08:49:57;;;;;;;;;;;16.70;99.90;;;;;;5003735;28;20132;-67
2022/05/07 08:52:23;;;;;;;26.67;14.95;;;16.70;99.90;;;;;;5000703;28;20383;-68
2022/05/07 08:54:48;;;;;;;27.98;15.27;;;16.70;99.90;;;;;;5017419;28;20532;-66
2022/05/07 08:57:15;;;;;;;27.85;15.38;;;16.80;99.90;;;;;;5009744;28;20068;-67
2022/05/07 08:59:43;;;;;;;25.92;14.77;;;16.80;99.90;;;;;;5026479;28;20049;-67
2022/05/07 09:02:09;;;;;;;28.65;15.90;;;16.70;99.90;;;;;;5019639;28;20133;-68
2022/05/07 09:04:38;;;;;;;26.65;16.35;;;16.80;99.90;;;;;;5018490;28;20048;-67
2022/05/07 09:07:05;;;;;;;29.52;16.67;;;16.80;99.90;;;;;;5026636;28;20108;-68
2022/05/07 09:09:31;;;;;;;31.70;16.33;;;16.80;99.90;;;;;;5025793;28;20135;-68
2022/05/07 09:11:58;;;;;;;29.55;16.33;;;16.80;99.90;;;;;;5007307;28;20277;-68
2022/05/07 09:14:33;;;;;;;31.38;16.80;;;16.80;99.90;;;;;;5015816;28;20052;-67
2022/05/07 09:16:59;;;;;;;30.67;17.88;;;16.70;99.90;;;;;;5022226;28;20112;-68
2022/05/07 09:19:31;;;;;;;27.60;15.85;;;16.70;99.90;;;;;;5012458;28;20430;-68
2022/05/07 09:22:09;;;;;;;30.52;16.85;;;16.60;99.90;;;;;;5015981;28;20049;-68
2022/05/07 09:24:35;;;;;;;27.13;15.77;;;16.70;99.90;;;;;;5005394;28;20040;-68
2022/05/07 09:27:03;;;;;;;28.48;16.25;;;16.70;99.90;;;;;;5019609;28;20136;-68
2022/05/07 09:29:30;;;;;;;31.05;16.38;;;16.70;99.90;;;;;;5019525;28;20528;-68
2022/05/07 09:32:07;;;;;;;27.40;15.85;;;16.60;99.90;;;;;;5021647;28;20514;-67
2022/05/07 09:37:34;;;;;;;24.02;13.88;;;16.50;99.90;;;;;;5015449;28;20392;-66
2022/05/07 09:40:04;;;;;;;26.33;15.07;;;16.40;99.90;;;;;;5023684;28;20055;-66
2022/05/07 09:42:32;;;;;;;25.42;14.57;;;16.40;99.90;;;;;;5009589;28;20045;-66
2022/05/07 09:44:58;;;;;;;30.95;15.40;;;16.40;99.90;;;;;;4998209;28;20053;-65
2022/05/07 09:47:26;;;;;;;23.98;15.48;;;16.40;99.90;;;;;;5012343;28;20049;-66
2022/05/07 09:58:17;;;;;;;22.27;12.88;;;16.40;99.90;;;;;;5021823;28;20304;-70
2022/05/07 10:01:01;;;;;;;24.52;13.45;;;16.40;99.90;;;;;;4999084;28;20117;-68
2022/05/07 10:03:58;;;;;;;22.58;12.18;;;16.40;99.90;;;;;;5022413;28;20364;-66
2022/05/07 10:07:06;;;;;;;23.98;13.60;;;16.50;99.90;;;;;;5011517;28;20049;-67
2022/05/07 10:09:43;;;;;;;23.95;13.02;;;16.50;99.90;;;;;;4998776;28;20042;-66
2022/05/07 10:12:16;;;;;;;21.20;11.68;;;16.60;99.90;;;;;;5010661;28;20041;-66
2022/05/07 10:14:42;;;;;;;20.27;11.02;;;16.70;99.90;;;;;;4998856;28;20052;-66
2022/05/07 10:17:12;;;;;;;20.95;12.80;;;16.70;99.90;;;;;;5019609;28;20037;-66
2022/05/07 10:19:42;;;;;;;23.88;13.10;;;16.80;99.90;;;;;;5014267;28;20529;-65
2022/05/07 10:22:23;;;;;;;28.38;16.20;;;16.80;99.90;;;;;;5016985;28;20514;-70
2022/05/07 10:25:02;;;;;;;30.30;16.88;;;16.80;99.90;;;;;;5020557;28;20516;-70
2022/05/07 10:27:34;;;;;;;30.10;17.30;;;16.70;99.90;;;;;;5024935;28;20226;-68
2022/05/07 10:30:09;;;;;;;31.30;17.17;;;16.60;99.90;;;;;;5001220;28;20045;-66
2022/05/07 10:32:48;;;;;;;38.33;19.98;;;16.60;99.90;;;;;;5002381;28;20046;-64
2022/05/07 10:35:14;;;;;;;36.53;19.42;;;16.50;99.90;;;;;;5021118;28;20041;-66
2022/05/07 10:37:40;;;;;;;;;;;16.50;99.90;;;;;;5012223;28;20040;-65
2022/05/07 10:40:11;;;;;;;32.75;18.27;;;16.40;99.90;;;;;;5004943;28;19936;-69
2022/05/07 10:42:40;;;;;;;40.03;18.88;;;16.50;99.90;;;;;;5002716;28;20042;-64
2022/05/07 10:45:20;;;;;;;33.28;18.10;;;16.50;99.90;;;;;;4994977;28;20127;-64
2022/05/07 10:47:53;;;;;;;30.77;17.00;;;16.60;99.90;;;;;;4999352;28;20129;-65
2022/05/07 10:50:21;;;;;;;28.33;15.65;;;16.60;99.90;;;;;;5013507;28;20517;-64
2022/05/07 10:52:55;;;;;;;29.25;16.25;;;16.50;99.90;;;;;;5018206;28;20044;-65
2022/05/07 10:55:25;;;;;;;28.95;14.85;;;16.50;99.90;;;;;;5015883;28;20045;-64
2022/05/07 10:57:51;;;;;;;28.15;13.82;;;16.50;99.90;;;;;;5024273;28;20037;-64
2022/05/07 11:00:18;;;;;;;26.40;13.57;;;16.50;99.90;;;;;;5021400;28;20388;-64
2022/05/07 11:02:45;;;;;;;22.92;13.32;;;16.50;99.90;;;;;;5016796;28;20238;-65
2022/05/07 11:05:11;;;;;;;22.48;11.93;;;16.50;99.90;;;;;;5003094;28;20076;-65
2022/05/07 11:07:38;;;;;;;;;;;16.50;99.90;;;;;;4990883;28;20120;-64
2022/05/07 11:10:04;;;;;;;21.45;10.98;;;16.50;99.90;;;;;;5016000;28;19921;-65
2022/05/07 11:12:30;;;;;;;17.40;10.10;;;16.50;99.90;;;;;;5013693;28;20060;-64
2022/05/07 11:14:56;;;;;;;17.52;10.13;;;16.50;99.90;;;;;;5013158;28;20041;-67
2022/05/07 11:17:35;;;;;;;16.42;9.40;;;16.50;99.90;;;;;;4992736;28;20038;-64
2022/05/07 11:20:02;;;;;;;14.45;8.02;;;16.60;99.90;;;;;;5015239;28;20052;-64
2022/05/07 11:22:31;;;;;;;13.93;8.55;;;16.60;99.90;;;;;;5014448;28;20042;-64
2022/05/07 11:25:02;;;;;;;14.95;7.90;;;16.70;99.90;;;;;;5025080;28;20041;-66
2022/05/07 11:27:34;;;;;;;14.55;7.93;;;16.70;99.90;;;;;;4993966;28;20065;-64
2022/05/07 11:30:03;;;;;;;13.38;7.57;;;16.70;99.90;;;;;;5017650;28;20041;-64
2022/05/07 11:32:42;;;;;;;14.95;7.65;;;16.70;99.90;;;;;;5029888;28;20090;-64
2022/05/07 11:35:08;;;;;;;13.60;7.30;;;16.80;99.90;;;;;;5016726;28;20050;-64
2022/05/07 11:37:41;;;;;;;;;;;16.70;99.90;;;;;;4989219;28;20046;-64
2022/05/07 11:40:08;;;;;;;10.70;5.78;;;16.70;99.90;;;;;;5011713;28;19968;-64
2022/05/07 11:42:35;;;;;;;10.98;6.03;;;16.70;99.90;;;;;;5022214;28;20041;-64
2022/05/07 11:47:54;;;;;;;11.00;5.85;;;16.80;99.90;;;;;;5027219;28;20441;-64
2022/05/07 11:50:29;;;;;;;9.68;5.32;;;16.90;99.90;;;;;;5017318;28;20041;-64
2022/05/07 11:52:56;;;;;;;10.40;5.47;;;17.00;99.90;;;;;;5019916;28;20124;-64
2022/05/07 11:55:27;;;;;;;10.40;5.50;;;17.20;99.90;;;;;;5006049;28;20045;-65
2022/05/07 11:57:53;;;;;;;7.22;4.50;;;17.40;99.90;;;;;;5019780;28;20470;-64
2022/05/07 12:00:21;;;;;;;9.02;5.68;;;17.60;99.90;;;;;;5019262;28;20034;-65
2022/05/07 12:02:55;;;;;;;10.88;5.88;;;17.70;99.90;;;;;;5012802;28;20458;-64
2022/05/07 12:05:21;;;;;;;8.48;4.57;;;17.70;99.90;;;;;;4997336;28;20045;-64
2022/05/07 12:07:48;;;;;;;;;;;17.70;99.90;;;;;;5008484;28;20379;-64
2022/05/07 12:10:15;;;;;;;10.82;5.60;;;17.80;99.90;;;;;;5015611;28;19979;-64
2022/05/07 12:12:41;;;;;;;8.35;5.03;;;17.90;99.90;;;;;;5006740;28;20056;-64
2022/05/07 12:15:07;;;;;;;12.10;6.28;;;17.90;99.90;;;;;;5001205;28;20738;-64
2022/05/07 12:20:17;;;;;;;10.32;6.00;;;17.90;99.90;;;;;;5012092;28;20046;-65
2022/05/07 12:30:56;;;;;;;8.90;4.97;;;18.00;99.90;;;;;;5027089;28;20045;-65
2022/05/07 12:33:22;;;;;;;8.00;4.70;;;18.20;99.90;;;;;;5118884;22;20067;-67
2022/05/07 12:35:49;;;;;;;5.93;4.13;;;18.40;99.90;;;;;;5096886;28;20132;-67
2022/05/07 12:38:15;;;;;;;7.60;3.88;;;18.60;99.90;;;;;;5066328;28;20297;-67
2022/05/07 12:40:40;;;;;;;8.90;4.50;;;18.70;99.90;;;;;;5076112;28;20035;-67
2022/05/07 12:43:07;;;;;;;7.80;4.75;;;18.70;99.90;;;;;;5066945;28;20423;-67
2022/05/07 12:45:34;;;;;;;6.75;4.22;;;18.80;99.90;;;;;;5081189;28;20054;-67
2022/05/07 12:48:00;;;;;;;9.55;4.10;;;18.90;99.90;;;;;;5088382;28;20575;-67
2022/05/07 12:50:26;;;;;;;8.13;4.90;;;18.90;99.90;;;;;;5074472;28;20153;-67
2022/05/07 12:52:51;;;;;;;6.32;3.92;;;18.90;99.90;;;;;;5071136;28;20178;-67
2022/05/07 12:55:17;;;;;;;8.95;5.43;;;18.80;99.90;;;;;;5087136;28;20036;-67
2022/05/07 12:57:43;;;;;;;8.13;4.75;;;19.00;99.90;;;;;;5078002;28;20036;-67
2022/05/07 13:00:09;;;;;;;9.48;5.15;;;19.10;99.90;;;;;;5078027;28;20115;-67
2022/05/07 13:02:34;;;;;;;6.65;4.35;;;19.30;99.90;;;;;;5076352;28;20055;-67
2022/05/07 13:05:00;;;;;;;6.28;3.95;;;19.30;99.90;;;;;;5075553;28;20063;-67
2022/05/07 13:07:25;;;;;;;7.60;4.15;;;19.20;99.90;;;;;;5082757;28;20317;-68
2022/05/07 13:09:51;;;;;;;7.82;4.10;;;19.10;99.90;;;;;;5069766;28;20033;-67
2022/05/07 13:12:17;;;;;;;9.45;5.03;;;19.00;99.90;;;;;;5077236;28;20051;-67
2022/05/07 13:14:42;;;;;;;;;;;18.80;99.90;;;;;;5081139;28;20040;-68
2022/05/07 13:17:08;;;;;;;6.05;3.83;;;18.70;99.90;;;;;;5076666;28;20371;-67
2022/05/07 13:19:34;;;;;;;6.03;3.55;;;18.50;99.90;;;;;;5064097;28;20696;-67
2022/05/07 13:22:00;;;;;;;7.75;3.15;;;18.50;99.90;;;;;;5074241;28;20067;-67